createdAt,value
2022-09-11T00:01:15.593Z,15.00
2022-09-11T00:03:46.665Z,13.47
2022-09-11T00:06:23.728Z,15.90
2022-09-11T00:09:01.045Z,16.27
2022-09-11T00:11:30.759Z,13.83
2022-09-11T00:13:57.665Z,14.83
2022-09-11T00:16:36.544Z,16.23
2022-09-11T00:19:17.733Z,16.33
2022-09-11T00:21:45.631Z,15.93
2022-09-11T00:24:12.580Z,21.77
2022-09-11T00:26:40.836Z,14.37
2022-09-11T00:29:08.175Z,16.60
2022-09-11T00:31:35.189Z,12.93
2022-09-11T00:34:01.968Z,18.43
2022-09-11T00:36:31.601Z,12.43
2022-09-11T00:38:59.170Z,13.83
2022-09-11T00:41:46.283Z,13.57
2022-09-11T00:44:17.889Z,13.60
2022-09-11T00:46:55.624Z,13.63
2022-09-11T00:49:28.154Z,13.70
2022-09-11T00:51:59.907Z,16.40
2022-09-11T00:54:31.193Z,16.17
2022-09-11T00:57:01.323Z,13.53
2022-09-11T00:59:29.433Z,13.07
2022-09-11T01:01:56.099Z,12.97
2022-09-11T01:04:23.405Z,13.57
2022-09-11T01:06:56.521Z,11.73
2022-09-11T01:09:25.894Z,11.20
2022-09-11T01:12:30.268Z,15.10
2022-09-11T01:15:09.456Z,11.00
2022-09-11T01:17:50.915Z,14.30
2022-09-11T01:20:32.029Z,13.37
2022-09-11T01:23:13.716Z,12.27
2022-09-11T01:26:06.863Z,12.87
2022-09-11T01:28:40.096Z,12.83
2022-09-11T01:31:10.756Z,12.53
2022-09-11T01:33:51.906Z,17.13
2022-09-11T01:36:44.408Z,15.67
2022-09-11T01:39:12.444Z,17.80
2022-09-11T01:41:46.420Z,13.00
2022-09-11T01:44:26.559Z,16.47
2022-09-11T01:46:53.713Z,14.63
2022-09-11T01:49:23.467Z,16.23
2022-09-11T01:51:57.637Z,16.17
2022-09-11T01:54:31.999Z,15.63
2022-09-11T01:57:04.469Z,12.80
2022-09-11T01:59:40.600Z,14.77
2022-09-11T02:02:11.457Z,13.13
2022-09-11T02:05:16.023Z,12.03
2022-09-11T02:07:46.866Z,13.03
2022-09-11T02:10:20.100Z,13.80
2022-09-11T02:12:56.506Z,14.80
2022-09-11T02:15:26.065Z,13.67
2022-09-11T02:18:05.982Z,11.60
2022-09-11T02:20:34.402Z,14.37
2022-09-11T02:23:02.276Z,13.83
2022-09-11T02:25:29.029Z,12.00
2022-09-11T02:27:56.779Z,13.80
2022-09-11T02:30:23.560Z,15.00
2022-09-11T02:32:50.270Z,14.67
2022-09-11T02:35:16.999Z,14.30
2022-09-11T02:37:54.147Z,16.27
2022-09-11T02:40:21.249Z,16.67
2022-09-11T02:43:17.453Z,16.60
2022-09-11T02:46:09.477Z,18.47
2022-09-11T02:49:07.864Z,14.50
2022-09-11T02:51:43.848Z,13.63
2022-09-11T02:54:13.637Z,15.90
2022-09-11T02:57:16.685Z,14.80
2022-09-11T02:59:48.018Z,18.97
2022-09-11T03:02:15.665Z,15.37
2022-09-11T03:04:42.372Z,15.60
2022-09-11T03:07:09.253Z,15.97
2022-09-11T03:09:37.549Z,14.50
2022-09-11T03:12:10.470Z,15.17
2022-09-11T03:14:38.301Z,12.87
2022-09-11T03:17:06.140Z,13.87
2022-09-11T03:19:34.451Z,12.87
2022-09-11T03:22:02.961Z,14.33
2022-09-11T03:24:30.504Z,10.27
2022-09-11T03:26:57.409Z,11.13
2022-09-11T03:29:24.771Z,11.03
2022-09-11T03:31:52.213Z,10.00
2022-09-11T03:34:19.892Z,9.93
2022-09-11T03:36:48.225Z,9.97
2022-09-11T03:39:15.227Z,11.80
2022-09-11T03:41:41.941Z,12.67
2022-09-11T03:44:08.685Z,11.40
2022-09-11T03:46:35.410Z,11.50
2022-09-11T03:49:02.452Z,11.60
2022-09-11T03:51:31.268Z,11.20
2022-09-11T03:54:01.281Z,13.67
2022-09-11T03:56:29.899Z,12.07
2022-09-11T03:58:57.345Z,12.50
2022-09-11T04:01:25.121Z,10.57
2022-09-11T04:03:53.292Z,11.87
2022-09-11T04:06:42.583Z,9.73
2022-09-11T04:09:09.589Z,10.07
2022-09-11T04:11:39.041Z,10.07
2022-09-11T04:14:22.547Z,11.00
2022-09-11T04:16:50.313Z,12.77
2022-09-11T04:19:18.869Z,15.63
2022-09-11T04:21:45.612Z,11.93
2022-09-11T04:24:12.772Z,12.07
2022-09-11T04:26:39.670Z,11.50
2022-09-11T04:29:13.004Z,13.80
2022-09-11T04:31:41.364Z,12.37
2022-09-11T04:34:09.834Z,11.83
2022-09-11T04:36:37.508Z,15.77
2022-09-11T04:39:05.287Z,12.20
2022-09-11T04:41:32.424Z,13.23
2022-09-11T04:44:05.168Z,13.77
2022-09-11T04:46:37.194Z,14.93
2022-09-11T04:49:08.258Z,15.07
2022-09-11T04:51:36.599Z,15.60
2022-09-11T04:54:04.248Z,15.97
2022-09-11T04:56:38.045Z,13.80
2022-09-11T04:59:16.244Z,19.07
2022-09-11T05:01:50.370Z,15.53
2022-09-11T05:04:21.753Z,12.93
2022-09-11T05:06:50.155Z,13.23
2022-09-11T05:09:18.594Z,13.10
2022-09-11T05:11:47.183Z,14.33
2022-09-11T05:14:15.277Z,12.50
2022-09-11T05:16:44.995Z,11.80
2022-09-11T05:19:12.750Z,14.23
2022-09-11T05:21:39.957Z,14.20
2022-09-11T05:24:08.154Z,13.50
2022-09-11T05:26:37.246Z,16.07
2022-09-11T05:29:09.141Z,14.97
2022-09-11T05:31:41.735Z,12.73
2022-09-11T05:34:09.018Z,15.13
2022-09-11T05:36:37.064Z,13.83
2022-09-11T05:39:04.493Z,12.57
2022-09-11T05:41:33.379Z,13.63
2022-09-11T05:44:00.250Z,15.70
2022-09-11T05:46:27.203Z,14.90
2022-09-11T05:48:59.226Z,13.23
2022-09-11T05:51:27.374Z,12.87
2022-09-11T05:53:55.430Z,13.17
2022-09-11T05:56:23.996Z,11.90
2022-09-11T05:58:54.050Z,12.67
2022-09-11T06:01:29.846Z,14.53
2022-09-11T06:04:10.241Z,13.57
2022-09-11T06:06:38.471Z,12.80
2022-09-11T06:09:08.460Z,14.27
2022-09-11T06:11:35.323Z,13.13
2022-09-11T06:14:02.809Z,12.57
2022-09-11T06:16:31.647Z,12.07
2022-09-11T06:19:05.758Z,12.00
2022-09-11T06:21:32.577Z,10.73
2022-09-11T06:24:06.198Z,10.83
2022-09-11T06:26:35.592Z,11.53
2022-09-11T06:29:03.153Z,9.93
2022-09-11T06:31:31.062Z,10.23
2022-09-11T06:33:57.795Z,12.60
2022-09-11T06:36:31.511Z,12.20
2022-09-11T06:39:00.870Z,10.57
2022-09-11T06:41:28.733Z,10.83
2022-09-11T06:44:02.594Z,10.50
2022-09-11T06:46:30.460Z,12.13
2022-09-11T06:48:58.991Z,12.33
2022-09-11T06:51:28.254Z,12.30
2022-09-11T06:53:58.093Z,14.10
2022-09-11T06:56:28.676Z,11.50
2022-09-11T06:58:56.201Z,16.73
2022-09-11T07:01:25.440Z,13.23
2022-09-11T07:03:59.556Z,15.20
2022-09-11T07:06:27.709Z,12.70
2022-09-11T07:09:01.016Z,14.00
2022-09-11T07:11:34.559Z,14.17
2022-09-11T07:14:05.750Z,13.00
2022-09-11T07:16:36.808Z,14.60
2022-09-11T07:19:09.292Z,13.73
2022-09-11T07:21:37.249Z,16.87
2022-09-11T07:24:05.267Z,15.03
2022-09-11T07:26:42.220Z,19.37
2022-09-11T07:29:20.770Z,17.37
2022-09-11T07:31:47.833Z,21.40
2022-09-11T07:34:15.873Z,18.17
2022-09-11T07:36:43.308Z,17.43
2022-09-11T07:39:10.388Z,17.03
2022-09-11T07:41:46.772Z,16.93
2022-09-11T07:44:19.652Z,18.60
2022-09-11T07:46:46.992Z,20.70
2022-09-11T07:49:14.457Z,20.40
2022-09-11T07:51:43.928Z,22.57
2022-09-11T07:54:13.412Z,21.03
2022-09-11T07:56:44.370Z,26.47
2022-09-11T07:59:11.833Z,21.73
2022-09-11T08:01:43.100Z,22.20
2022-09-11T08:04:12.328Z,22.43
2022-09-11T08:06:40.329Z,25.37
2022-09-11T08:09:15.103Z,27.23
2022-09-11T08:11:48.912Z,24.47
2022-09-11T08:14:18.176Z,27.53
2022-09-11T08:16:48.560Z,25.83
2022-09-11T08:19:18.579Z,23.93
2022-09-11T08:21:49.895Z,26.47
2022-09-11T08:24:20.297Z,25.47
2022-09-11T08:26:50.662Z,25.63
2022-09-11T08:29:18.997Z,30.10
2022-09-11T08:31:47.246Z,27.10
2022-09-11T08:34:15.669Z,25.23
2022-09-11T08:36:42.741Z,31.90
2022-09-11T08:39:10.367Z,26.87
2022-09-11T08:41:53.821Z,27.83
2022-09-11T08:44:38.985Z,25.93
2022-09-11T08:47:24.422Z,29.17
2022-09-11T08:50:02.060Z,26.00
2022-09-11T08:52:32.577Z,29.30
2022-09-11T08:55:03.135Z,27.47
2022-09-11T08:57:49.817Z,28.50
2022-09-11T09:01:23.845Z,29.90
2022-09-11T09:04:21.573Z,27.87
2022-09-11T09:07:23.711Z,26.63
2022-09-11T09:13:29.827Z,24.90
2022-09-11T09:16:22.746Z,30.33
2022-09-11T09:18:53.417Z,24.07
2022-09-11T09:22:02.093Z,29.50
2022-09-11T09:24:36.872Z,28.43
2022-09-11T09:27:35.837Z,29.33
2022-09-11T09:30:22.534Z,24.90
2022-09-11T09:33:25.359Z,26.73
2022-09-11T09:36:51.897Z,29.47
2022-09-11T09:39:19.785Z,29.67
2022-09-11T09:41:52.578Z,26.80
2022-09-11T09:44:25.510Z,25.67
2022-09-11T09:46:53.418Z,27.70
2022-09-11T09:49:25.325Z,26.33
2022-09-11T09:51:54.903Z,24.50
2022-09-11T09:54:26.724Z,23.83
2022-09-11T09:57:06.202Z,23.17
2022-09-11T09:59:41.564Z,24.60
2022-09-11T10:02:08.536Z,23.80
2022-09-11T10:04:36.067Z,24.20
2022-09-11T10:07:11.573Z,22.60
2022-09-11T10:09:46.887Z,23.53
2022-09-11T10:12:20.612Z,19.17
2022-09-11T10:14:58.674Z,23.43
2022-09-11T10:17:29.460Z,21.30
2022-09-11T10:20:12.285Z,18.83
2022-09-11T10:22:39.336Z,19.47
2022-09-11T10:25:16.892Z,18.27
2022-09-11T10:28:10.059Z,19.23
2022-09-11T10:30:39.988Z,17.17
2022-09-11T10:33:26.431Z,14.67
2022-09-11T10:35:58.293Z,19.40
2022-09-11T10:38:32.402Z,21.27
2022-09-11T10:41:08.477Z,18.30
2022-09-11T10:44:00.671Z,15.37
2022-09-11T10:46:41.334Z,14.20
2022-09-11T10:49:17.226Z,16.80
2022-09-11T10:51:59.331Z,18.53
2022-09-11T10:54:54.416Z,14.70
2022-09-11T10:57:28.080Z,12.93
2022-09-11T11:00:13.061Z,15.30
2022-09-11T11:02:51.449Z,14.93
2022-09-11T11:05:31.422Z,14.03
2022-09-11T11:08:12.149Z,13.73
2022-09-11T11:10:56.302Z,13.10
2022-09-11T11:13:47.534Z,11.63
2022-09-11T11:16:23.216Z,11.80
2022-09-11T11:19:29.662Z,11.07
2022-09-11T11:22:18.461Z,10.57
2022-09-11T11:25:20.145Z,10.97
2022-09-11T11:28:11.880Z,8.37
2022-09-11T11:30:44.894Z,9.63
2022-09-11T11:33:33.673Z,9.20
2022-09-11T11:36:05.324Z,10.13
2022-09-11T11:39:12.895Z,12.57
2022-09-11T11:41:44.628Z,10.33
2022-09-11T11:44:15.939Z,11.43
2022-09-11T11:46:49.519Z,12.00
2022-09-11T11:49:20.987Z,8.93
2022-09-11T11:52:00.495Z,8.50
2022-09-11T11:54:42.731Z,6.13
2022-09-11T11:57:12.222Z,5.77
2022-09-11T11:59:54.587Z,6.40
2022-09-11T12:02:25.445Z,7.10
2022-09-11T12:05:03.584Z,5.33
2022-09-11T12:07:34.118Z,7.73
2022-09-11T12:10:02.954Z,5.30
2022-09-11T12:12:33.950Z,5.90
2022-09-11T12:15:06.510Z,6.93
2022-09-11T12:17:34.300Z,5.23
2022-09-11T12:20:12.528Z,7.50
2022-09-11T12:22:50.175Z,4.93
2022-09-11T12:25:19.818Z,4.50
2022-09-11T12:27:47.554Z,6.00
2022-09-11T12:30:17.487Z,4.57
2022-09-11T12:32:48.833Z,2.90
2022-09-11T12:35:26.301Z,5.30
2022-09-11T12:38:09.262Z,5.57
2022-09-11T12:40:57.352Z,4.30
2022-09-11T12:43:36.366Z,3.67
2022-09-11T12:46:10.471Z,4.20
2022-09-11T12:48:56.271Z,4.20
2022-09-11T12:51:38.154Z,4.50
2022-09-11T12:54:16.342Z,2.83
2022-09-11T12:57:02.311Z,2.27
2022-09-11T12:59:33.452Z,5.03
2022-09-11T13:02:01.105Z,1.73
2022-09-11T13:04:31.095Z,7.40
2022-09-11T13:07:05.061Z,5.60
2022-09-11T13:09:38.695Z,2.30
2022-09-11T13:12:23.919Z,1.73
2022-09-11T13:14:57.107Z,4.07
2022-09-11T13:17:30.703Z,5.97
2022-09-11T13:20:21.972Z,3.83
2022-09-11T13:22:52.740Z,2.23
2022-09-11T13:25:22.783Z,2.23
2022-09-11T13:27:54.465Z,3.20
2022-09-11T13:30:23.689Z,1.40
2022-09-11T13:33:14.583Z,2.23
2022-09-11T13:35:45.093Z,3.33
2022-09-11T13:38:19.489Z,2.23
2022-09-11T13:40:56.873Z,1.60
2022-09-11T13:43:36.014Z,4.17
2022-09-11T13:46:14.560Z,3.73
2022-09-11T13:48:43.373Z,1.30
2022-09-11T13:51:14.604Z,2.77
2022-09-11T13:53:43.315Z,2.77
2022-09-11T13:56:20.956Z,2.67
2022-09-11T13:58:52.894Z,1.50
2022-09-11T14:01:20.408Z,1.40
2022-09-11T14:03:48.959Z,1.60
2022-09-11T14:06:18.934Z,2.90
2022-09-11T14:08:53.411Z,1.40
2022-09-11T14:11:26.456Z,2.20
2022-09-11T14:13:57.305Z,2.00
2022-09-11T14:16:32.526Z,3.90
2022-09-11T14:19:09.201Z,1.70
2022-09-11T14:21:38.065Z,1.37
2022-09-11T14:24:16.754Z,2.93
2022-09-11T14:26:43.651Z,4.80
2022-09-11T14:29:33.907Z,2.67
2022-09-11T14:32:29.634Z,3.10
2022-09-11T14:34:56.370Z,2.00
2022-09-11T14:37:24.043Z,4.73
2022-09-11T14:39:59.314Z,2.13
2022-09-11T14:42:29.436Z,1.70
2022-09-11T14:44:57.661Z,2.03
2022-09-11T14:47:26.941Z,1.17
2022-09-11T14:49:55.203Z,1.50
2022-09-11T14:52:27.679Z,1.40
2022-09-11T14:54:54.832Z,2.33
2022-09-11T14:57:24.134Z,3.37
2022-09-11T14:59:51.610Z,1.77
2022-09-11T15:02:21.511Z,2.43
2022-09-11T15:04:48.895Z,2.07
2022-09-11T15:07:16.854Z,1.93
2022-09-11T15:09:43.913Z,4.73
2022-09-11T15:12:11.973Z,3.03
2022-09-11T15:14:55.706Z,3.43
2022-09-11T15:17:25.267Z,3.37
2022-09-11T15:19:52.809Z,2.13
2022-09-11T15:22:19.723Z,5.13
2022-09-11T15:24:48.161Z,2.23
2022-09-11T15:27:27.734Z,3.00
2022-09-11T15:29:55.204Z,3.17
2022-09-11T15:32:21.859Z,2.60
2022-09-11T15:34:48.702Z,2.17
2022-09-11T15:37:18.491Z,3.70
2022-09-11T15:39:45.285Z,3.93
2022-09-11T15:42:12.619Z,1.80
2022-09-11T15:44:39.573Z,2.00
2022-09-11T15:47:07.316Z,2.30
2022-09-11T15:49:39.451Z,1.97
2022-09-11T15:52:06.332Z,1.90
2022-09-11T15:54:33.063Z,2.17
2022-09-11T15:57:00.053Z,1.90
2022-09-11T15:59:27.101Z,1.83
2022-09-11T16:01:54.671Z,2.00
2022-09-11T16:04:27.262Z,1.60
2022-09-11T16:06:55.278Z,1.50
2022-09-11T16:09:25.389Z,1.70
2022-09-11T16:11:54.490Z,2.30
2022-09-11T16:14:33.323Z,2.20
2022-09-11T16:17:02.364Z,2.90
2022-09-11T16:19:30.022Z,3.60
2022-09-11T16:21:58.039Z,4.03
2022-09-11T16:24:26.161Z,2.70
2022-09-11T16:26:56.857Z,1.90
2022-09-11T16:29:25.705Z,2.73
2022-09-11T16:31:52.585Z,2.27
2022-09-11T16:34:19.366Z,3.17
2022-09-11T16:36:48.928Z,2.30
2022-09-11T16:39:19.094Z,2.17
2022-09-11T16:41:46.254Z,3.07
2022-09-11T16:44:14.964Z,1.90
2022-09-11T16:46:45.022Z,2.83
2022-09-11T16:49:17.884Z,2.73
2022-09-11T16:51:46.251Z,1.80
2022-09-11T16:54:13.329Z,1.70
2022-09-11T16:56:45.249Z,1.93
2022-09-11T16:59:12.733Z,1.77
2022-09-11T17:01:40.049Z,1.93
2022-09-11T17:04:06.827Z,1.67
2022-09-11T17:06:33.969Z,1.97
2022-09-11T17:09:01.737Z,1.63
2022-09-11T17:11:31.064Z,1.70
2022-09-11T17:13:59.914Z,3.07
2022-09-11T17:16:29.481Z,1.33
2022-09-11T17:18:56.752Z,1.80
2022-09-11T17:21:25.746Z,1.53
2022-09-11T17:23:54.749Z,1.63
2022-09-11T17:26:22.476Z,1.20
2022-09-11T17:28:50.081Z,2.00
2022-09-11T17:31:19.312Z,2.30
2022-09-11T17:33:47.094Z,1.60
2022-09-11T17:36:19.707Z,2.00
2022-09-11T17:38:48.339Z,3.20
2022-09-11T17:41:16.433Z,1.53
2022-09-11T17:43:43.638Z,1.93
2022-09-11T17:46:14.143Z,4.27
2022-09-11T17:48:41.702Z,1.60
2022-09-11T17:51:14.189Z,2.00
2022-09-11T17:53:43.087Z,1.73
2022-09-11T17:56:15.074Z,1.60
2022-09-11T17:58:45.165Z,1.90
2022-09-11T18:01:16.820Z,1.97
2022-09-11T18:03:44.303Z,2.93
2022-09-11T18:06:21.270Z,2.10
2022-09-11T18:08:48.019Z,2.57
2022-09-11T18:11:14.753Z,1.67
2022-09-11T18:13:42.980Z,1.70
2022-09-11T18:16:11.610Z,2.00
2022-09-11T18:18:41.810Z,1.73
2022-09-11T18:21:10.272Z,2.67
2022-09-11T18:23:42.505Z,1.73
2022-09-11T18:26:16.945Z,3.47
2022-09-11T18:28:44.069Z,1.93
2022-09-11T18:31:11.471Z,3.33
2022-09-11T18:33:38.133Z,3.93
2022-09-11T18:36:07.949Z,3.53
2022-09-11T18:38:35.606Z,3.00
2022-09-11T18:41:02.208Z,3.43
2022-09-11T18:43:29.708Z,2.27
2022-09-11T18:45:56.543Z,3.20
2022-09-11T18:48:23.240Z,3.53
2022-09-11T18:50:51.176Z,2.13
2022-09-11T18:53:18.112Z,3.10
2022-09-11T18:55:44.802Z,3.20
2022-09-11T18:58:11.833Z,2.10
2022-09-11T19:00:38.836Z,2.67
2022-09-11T19:03:05.704Z,3.00
2022-09-11T19:05:32.404Z,2.97
2022-09-11T19:08:01.209Z,2.37
2022-09-11T19:10:28.811Z,2.77
2022-09-11T19:12:55.557Z,3.87
2022-09-11T19:15:23.105Z,2.67
2022-09-11T19:17:50.182Z,2.50
2022-09-11T19:20:17.031Z,3.00
2022-09-11T19:22:44.327Z,4.80
2022-09-11T19:25:11.151Z,6.77
2022-09-11T19:27:38.155Z,2.27
2022-09-11T19:30:06.907Z,3.90
2022-09-11T19:32:33.631Z,3.53
2022-09-11T19:35:00.663Z,4.83
2022-09-11T19:37:28.370Z,5.83
2022-09-11T19:39:57.182Z,3.00
2022-09-11T19:42:24.184Z,3.70
2022-09-11T19:44:55.653Z,3.50
2022-09-11T19:47:25.026Z,4.23
2022-09-11T19:49:51.728Z,2.63
2022-09-11T19:52:18.607Z,4.80
2022-09-11T20:11:42.773Z,5.20
2022-09-11T20:14:09.953Z,3.13
2022-09-11T20:16:36.744Z,2.70
2022-09-11T20:19:07.085Z,2.67
2022-09-11T20:32:19.861Z,4.37
2022-09-11T20:34:46.534Z,4.93
2022-09-11T20:37:13.642Z,4.53
2022-09-11T20:39:40.421Z,4.97
2022-09-11T20:42:10.021Z,4.27
2022-09-11T20:44:37.268Z,4.17
2022-09-11T20:47:04.250Z,3.47
2022-09-11T20:49:31.234Z,3.60
2022-09-11T20:51:58.067Z,4.13
2022-09-11T20:54:24.671Z,3.10
2022-09-11T20:56:51.335Z,5.90
2022-09-11T20:59:18.042Z,3.73
2022-09-11T21:01:44.814Z,4.20
2022-09-11T21:04:11.515Z,5.47
2022-09-11T21:06:38.173Z,5.43
2022-09-11T21:09:10.972Z,6.37
2022-09-11T21:11:40.206Z,3.20
2022-09-11T21:14:07.456Z,3.53
2022-09-11T21:16:35.477Z,5.33
2022-09-11T21:19:02.647Z,4.23
2022-09-11T21:21:30.101Z,5.83
2022-09-11T21:24:06.006Z,4.20
2022-09-11T21:26:34.531Z,6.87
2022-09-11T21:29:04.175Z,5.70
2022-09-11T21:31:31.076Z,4.37
2022-09-11T21:33:58.545Z,4.27
2022-09-11T21:36:25.719Z,6.03
2022-09-11T21:38:53.402Z,5.17
2022-09-11T21:41:20.253Z,4.53
2022-09-11T21:43:47.814Z,3.77
2022-09-11T21:46:14.796Z,3.93
2022-09-11T21:48:42.222Z,7.43
2022-09-11T21:51:11.927Z,5.87
2022-09-11T21:53:39.844Z,5.07
2022-09-11T21:56:20.207Z,6.20
2022-09-11T21:58:48.666Z,5.53
2022-09-11T22:01:15.467Z,4.50
2022-09-11T22:03:42.218Z,4.13
2022-09-11T22:06:10.708Z,6.97
2022-09-11T22:08:39.805Z,7.67
2022-09-11T22:11:07.093Z,9.77
2022-09-11T22:13:35.466Z,6.00
2022-09-11T22:16:10.465Z,6.77
2022-09-11T22:18:38.357Z,9.90
2022-09-11T22:21:05.509Z,6.17
2022-09-11T22:23:32.679Z,7.13
2022-09-11T22:26:13.156Z,5.70
2022-09-11T22:28:40.409Z,8.13
2022-09-11T22:31:16.770Z,5.50
2022-09-11T22:33:43.692Z,5.27
2022-09-11T22:36:14.695Z,7.17
2022-09-11T22:38:41.421Z,5.20
2022-09-11T22:41:08.552Z,6.07
2022-09-11T22:43:35.570Z,7.83
2022-09-11T22:46:02.233Z,5.17
2022-09-11T22:48:28.989Z,4.23
2022-09-11T22:50:57.543Z,5.23
2022-09-11T22:53:25.273Z,6.53
2022-09-11T22:55:53.997Z,4.00
2022-09-11T22:58:21.299Z,4.30
2022-09-11T23:00:49.095Z,3.90
2022-09-11T23:03:15.937Z,5.10
2022-09-11T23:06:01.107Z,5.93
2022-09-11T23:08:38.394Z,4.40
2022-09-11T23:11:05.955Z,4.47
2022-09-11T23:13:33.011Z,4.83
2022-09-11T23:16:00.024Z,4.90
2022-09-11T23:18:27.938Z,6.10
2022-09-11T23:20:58.400Z,5.47
2022-09-11T23:23:28.094Z,4.57
2022-09-11T23:25:55.299Z,5.37
2022-09-11T23:28:22.614Z,5.17
2022-09-11T23:30:49.716Z,4.53
2022-09-11T23:33:16.345Z,7.43
2022-09-11T23:35:42.989Z,5.97
2022-09-11T23:38:10.293Z,5.47
2022-09-11T23:40:36.907Z,5.70
2022-09-11T23:43:03.683Z,5.83
2022-09-11T23:45:30.323Z,7.47
2022-09-11T23:47:57.002Z,7.43
2022-09-11T23:50:24.589Z,6.10
2022-09-11T23:52:51.279Z,7.23
2022-09-11T23:55:19.098Z,9.30
2022-09-11T23:57:46.318Z,6.90
